Volcan De Tijarafe — ECNO — position and weather

sailwx.info

Track history (hours):
 
Tides and Currents Weather Stations Pressure Air Temp Water Temp Dewpoint Dewpoint Depression Visibility Wind Speed Wind Dir Waves Ship Positions

Volcan De Tijarafe

Last reported at 2017-Nov-23 09:30 UTC. Time now 2017-Nov-23 09:42 UTC.
Position N 28°55' W 013°36'.

Length 154 m; draft 5.2 m.

Type: Passenger vessel. MMSI: 224692000.

Date/timePositionNaut miles runAvg speedWind from/ knotsBaromVisibWave heightAir tempDewpointWater temp
2017-Nov-23 09:30N 28°55' W 013°36'9 2.2
2017-Nov-23 05:28N 28°50' W 013°45'818.0
2017-Nov-23 05:00N 28°48' W 013°54'918.0
2017-Nov-23 04:30N 28°45' W 014°04'917.9
2017-Nov-23 04:00N 28°41' W 014°13'918.0
2017-Nov-23 03:30N 28°37' W 014°22'918.0
2017-Nov-23 03:00N 28°33' W 014°31'918.3
2017-Nov-23 02:30N 28°28' W 014°40'918.1
2017-Nov-23 02:00N 28°24' W 014°49'918.2
2017-Nov-23 01:30N 28°19' W 014°58'918.1
2017-Nov-23 01:00N 28°14' W 015°07'918.4
2017-Nov-23 00:30N 28°10' W 015°16'714.5
2017-Nov-23 00:00N 28°10' W 015°24'0 0.1
2017-Nov-22 23:30N 28°10' W 015°24'0 0.0
2017-Nov-22 23:00N 28°10' W 015°24'0 0.0
2017-Nov-22 22:30N 28°10' W 015°24'0 0.0
2017-Nov-22 22:00N 28°10' W 015°24'0 0.0
2017-Nov-22 21:30N 28°10' W 015°24'0 0.0
2017-Nov-22 21:00N 28°10' W 015°24'0 0.0
2017-Nov-22 20:30N 28°10' W 015°24'0 0.0
2017-Nov-22 20:00N 28°10' W 015°24'0 0.0
2017-Nov-22 19:30N 28°10' W 015°24'  
2017-Nov-20 00:30N 28°10' W 015°24'0 0.0
2017-Nov-20 00:00N 28°10' W 015°24'0 0.0
2017-Nov-19 23:30N 28°10' W 015°24'0 0.0
2017-Nov-19 23:00N 28°10' W 015°24'0 0.0
2017-Nov-19 22:30N 28°10' W 015°24'1 1.3
2017-Nov-19 22:01N 28°09' W 015°24'1019.2
2017-Nov-19 21:30N 28°15' W 015°32'1121.4
2017-Nov-19 21:00N 28°19' W 015°44'1121.5
2017-Nov-19 20:30N 28°23' W 015°55'1121.4
2017-Nov-19 20:00N 28°26' W 016°06'7 5.0
2017-Nov-19 18:31N 28°28' W 016°15'0 0.0
2017-Nov-19 18:14N 28°28' W 016°15'4 7.8
2017-Nov-19 17:46N 28°28' W 016°11'622.0
2017-Nov-19 17:30N 28°26' W 016°05'1121.9
2017-Nov-19 17:00N 28°22' W 015°53'1121.8
2017-Nov-19 16:30N 28°18' W 015°41'1121.8
2017-Nov-19 16:00N 28°14' W 015°30'713.9
2017-Nov-19 15:31N 28°10' W 015°24'0 0.1
2017-Nov-19 15:00N 28°10' W 015°24'0 0.0
2017-Nov-19 14:30N 28°10' W 015°24'0 0.0
2017-Nov-19 14:00N 28°10' W 015°24'0 0.0
2017-Nov-19 13:30N 28°10' W 015°24'0 0.0
2017-Nov-19 13:00N 28°10' W 015°24'0 0.0
2017-Nov-19 12:30N 28°10' W 015°24'0 0.0
2017-Nov-19 12:00N 28°10' W 015°24'0 0.0
2017-Nov-19 11:30N 28°10' W 015°24'0 0.0
2017-Nov-19 11:00N 28°10' W 015°24'0 0.0
2017-Nov-19 10:30N 28°10' W 015°24'0 0.0
2017-Nov-19 10:00N 28°10' W 015°24'0 0.0
2017-Nov-19 09:30N 28°10' W 015°24'0 0.0
2017-Nov-19 09:00N 28°10' W 015°24'0 0.0
2017-Nov-19 08:30N 28°10' W 015°24'0 0.0
2017-Nov-19 08:00N 28°10' W 015°24'0 0.0
2017-Nov-19 07:30N 28°10' W 015°24'0 0.0
2017-Nov-19 07:01N 28°10' W 015°24'0 0.0
2017-Nov-19 06:30N 28°10' W 015°24'0 0.0
2017-Nov-19 06:00N 28°10' W 015°24'0 0.0
2017-Nov-19 05:30N 28°10' W 015°24'0 0.0
2017-Nov-19 05:00N 28°10' W 015°24'0 0.0
2017-Nov-19 04:30N 28°10' W 015°24'0 0.0
2017-Nov-19 04:00N 28°10' W 015°24'0 0.0
2017-Nov-19 03:30N 28°10' W 015°24'0 0.0
2017-Nov-19 03:00N 28°10' W 015°24'0 0.0
2017-Nov-19 02:30N 28°10' W 015°24'0 0.0
2017-Nov-19 02:00N 28°10' W 015°24'0 0.0
2017-Nov-19 01:30N 28°10' W 015°24'0 0.0
2017-Nov-19 01:00N 28°10' W 015°24'0 0.0
2017-Nov-19 00:30N 28°10' W 015°24'0 0.0
2017-Nov-19 00:00N 28°10' W 015°24'0 0.0
2017-Nov-18 23:30N 28°10' W 015°24'0 0.0
2017-Nov-18 23:00N 28°10' W 015°24'0 1.0
2017-Nov-18 22:31N 28°09' W 015°24'816.5
2017-Nov-18 22:00N 28°15' W 015°31'1121.5
2017-Nov-18 21:30N 28°19' W 015°42'1121.6
2017-Nov-18 21:00N 28°22' W 015°54'1121.5
2017-Nov-18 20:30N 28°26' W 016°05'811.9
2017-Nov-18 19:48N 28°28' W 016°15'0 0.0
2017-Nov-18 19:24N 28°28' W 016°15'0 0.0
2017-Nov-18 17:57N 28°28' W 016°15'0 0.0
2017-Nov-18 16:17N 28°28' W 016°15'0 0.0
2017-Nov-18 15:56N 28°28' W 016°15'0 0.0
2017-Nov-18 15:25N 28°28' W 016°15'0 0.0
2017-Nov-18 14:58N 28°28' W 016°15'0 0.0
2017-Nov-18 14:29N 28°28' W 016°15'0 0.0
2017-Nov-18 14:00N 28°28' W 016°15'0 0.0
2017-Nov-18 13:30N 28°28' W 016°15'0 0.0
2017-Nov-18 13:00N 28°28' W 016°15'0 0.0
2017-Nov-18 12:30N 28°28' W 016°15'0 0.0
2017-Nov-18 11:56N 28°28' W 016°15'0 0.0
2017-Nov-18 11:30N 28°28' W 016°15'0 0.0
2017-Nov-18 10:56N 28°28' W 016°15'1 2.4
2017-Nov-18 10:30N 28°29' W 016°14'1021.1
2017-Nov-18 10:00N 28°25' W 016°02'1121.9
2017-Nov-18 09:30N 28°21' W 015°51'1121.7
2017-Nov-18 09:00N 28°17' W 015°39'1121.6
2017-Nov-18 08:30N 28°13' W 015°28'510.7
2017-Nov-18 08:00N 28°10' W 015°24'0 0.0
2017-Nov-18 07:30N 28°10' W 015°24'0 0.0
2017-Nov-18 07:00N 28°10' W 015°24'0 0.0
2017-Nov-18 06:30N 28°10' W 015°24'0 0.0
2017-Nov-18 06:00N 28°10' W 015°24'0 0.0
2017-Nov-18 05:30N 28°10' W 015°24'0 0.0
2017-Nov-18 05:00N 28°10' W 015°24'0 0.0
2017-Nov-18 04:30N 28°10' W 015°24'0 0.0
2017-Nov-18 04:00N 28°10' W 015°24'0 0.0
2017-Nov-18 03:30N 28°10' W 015°24'0 0.0
2017-Nov-18 03:00N 28°10' W 015°24'0 0.0
2017-Nov-18 02:30N 28°10' W 015°24'0 0.0
2017-Nov-18 02:00N 28°10' W 015°24'0 0.0
2017-Nov-18 01:30N 28°10' W 015°24'0 0.0
2017-Nov-18 01:00N 28°10' W 015°24'0 0.0
2017-Nov-18 00:30N 28°10' W 015°24'0 0.0
2017-Nov-18 00:00N 28°10' W 015°24'0 0.0
2017-Nov-17 23:30N 28°10' W 015°24'4 7.2
2017-Nov-17 23:00N 28°13' W 015°26'1121.5
2017-Nov-17 22:30N 28°17' W 015°37'1121.1
2017-Nov-17 22:00N 28°20' W 015°49'1121.3
2017-Nov-17 21:30N 28°24' W 015°60'1121.2
2017-Nov-17 21:00N 28°28' W 016°11'3 5.8
2017-Nov-17 20:29N 28°28' W 016°15'0 0.0
2017-Nov-17 19:57N 28°28' W 016°15'0 0.4
2017-Nov-17 19:30N 28°28' W 016°15'2 4.9
2017-Nov-17 19:00N 28°28' W 016°12'1121.8
2017-Nov-17 18:30N 28°24' W 016°00'1121.6
2017-Nov-17 18:00N 28°21' W 015°49'1121.5
2017-Nov-17 17:30N 28°17' W 015°37'1121.3
2017-Nov-17 17:00N 28°13' W 015°26'4 7.4
2017-Nov-17 16:30N 28°10' W 015°24'0 0.0
2017-Nov-17 16:00N 28°10' W 015°24'0 0.0
2017-Nov-17 15:30N 28°10' W 015°24'0 0.0
2017-Nov-17 15:00N 28°10' W 015°24'0 1.0
2017-Nov-17 14:31N 28°09' W 015°24'1020.3
2017-Nov-17 14:00N 28°14' W 015°14'1121.4
2017-Nov-17 13:30N 28°19' W 015°03'1121.5
2017-Nov-17 13:00N 28°23' W 014°52'1121.3
2017-Nov-17 12:30N 28°28' W 014°41'1121.2
2017-Nov-17 12:00N 28°33' W 014°30'1121.3
2017-Nov-17 11:30N 28°38' W 014°19'1021.3
2017-Nov-17 11:00N 28°43' W 014°09'1121.0
2017-Nov-17 10:30N 28°47' W 013°58'1321.6
2017-Nov-17 09:54N 28°51' W 013°43'1121.0
2017-Nov-17 09:23N 28°56' W 013°33'2 1.5
2017-Nov-17 07:55N 28°58' W 013°32'0 0.0
2017-Nov-17 06:37N 28°58' W 013°32'0 0.0
2017-Nov-17 06:30N 28°58' W 013°32'1815.3
2017-Nov-17 05:19N 28°49' W 013°49'1118.2
2017-Nov-17 04:41N 28°46' W 014°02'2318.7
2017-Nov-17 03:29N 28°36' W 014°25'918.4
2017-Nov-17 02:59N 28°31' W 014°34'918.2
2017-Nov-17 02:30N 28°28' W 014°43'918.5
2017-Nov-17 02:00N 28°24' W 014°52'918.5
2017-Nov-17 01:30N 28°19' W 015°02'918.1
2017-Nov-17 01:00N 28°15' W 015°11'918.3
2017-Nov-17 00:30N 28°11' W 015°20'4 7.5
2017-Nov-17 00:00N 28°10' W 015°24'0 0.0
2017-Nov-16 23:30N 28°10' W 015°24'0 0.0
2017-Nov-16 23:00N 28°10' W 015°24'0 0.0
2017-Nov-16 22:30N 28°10' W 015°24'0 0.0
2017-Nov-16 22:00N 28°10' W 015°24'0 0.0
2017-Nov-16 21:30N 28°10' W 015°24'0 0.0
2017-Nov-16 21:00N 28°10' W 015°24'0 0.0
2017-Nov-16 20:30N 28°10' W 015°24'0 0.0
2017-Nov-16 20:00N 28°10' W 015°24'0 0.0
2017-Nov-16 19:30N 28°10' W 015°24'0 0.0
2017-Nov-16 19:00N 28°10' W 015°24'4 8.8
2017-Nov-16 18:30N 28°08' W 015°19'1121.5
2017-Nov-16 18:00N 28°07' W 015°07'1020.9
2017-Nov-16 17:30N 28°05' W 014°56'1121.1
2017-Nov-16 17:00N 28°04' W 014°44'1121.2
2017-Nov-16 16:30N 28°02' W 014°32'915.3
2017-Nov-16 15:56N 28°03' W 014°22'0 0.0
2017-Nov-16 15:26N 28°03' W 014°22'0 0.0
2017-Nov-16 14:50N 28°03' W 014°22'0 0.0
2017-Nov-16 14:26N 28°03' W 014°22'0 0.0
2017-Nov-16 13:54N 28°03' W 014°22'0 0.0
2017-Nov-16 12:40N 28°03' W 014°22'0 0.0
2017-Nov-16 12:30N 28°03' W 014°22'0 0.0
2017-Nov-16 11:58N 28°03' W 014°22'0 0.0
2017-Nov-16 11:29N 28°03' W 014°22'0 0.0
2017-Nov-16 11:00N 28°03' W 014°22'4 7.4
2017-Nov-16 10:30N 28°02' W 014°26'1021.0
2017-Nov-16 10:00N 28°03' W 014°38'1121.5
2017-Nov-16 09:30N 28°04' W 014°50'1021.0
2017-Nov-16 09:00N 28°05' W 015°02'1020.9
2017-Nov-16 08:30N 28°07' W 015°13'1019.5
2017-Nov-16 08:00N 28°09' W 015°24'0 0.6
2017-Nov-16 07:30N 28°10' W 015°24'0 0.0
2017-Nov-16 07:00N 28°10' W 015°24'0 0.0
2017-Nov-16 06:30N 28°10' W 015°24'0 0.0
2017-Nov-16 06:00N 28°10' W 015°24'0 0.0
2017-Nov-16 05:31N 28°10' W 015°24'0 0.0
2017-Nov-16 05:00N 28°10' W 015°24'0 0.0
2017-Nov-16 04:30N 28°10' W 015°24'0 0.0
2017-Nov-16 04:01N 28°10' W 015°24'0 0.0
2017-Nov-16 03:30N 28°10' W 015°24'0 0.0
2017-Nov-16 03:00N 28°10' W 015°24'0 0.0
2017-Nov-16 02:30N 28°10' W 015°24'0 0.0
2017-Nov-16 02:00N 28°10' W 015°24'0 0.0
2017-Nov-16 01:30N 28°10' W 015°24'0 0.0
2017-Nov-16 01:00N 28°10' W 015°24'0 0.0
2017-Nov-16 00:30N 28°10' W 015°24'0 0.0
2017-Nov-16 00:00N 28°10' W 015°24'0 0.0
2017-Nov-15 23:30N 28°10' W 015°24'0 0.0
2017-Nov-15 23:00N 28°10' W 015°24'1 2.1
2017-Nov-15 22:30N 28°10' W 015°23'1020.5
2017-Nov-15 22:00N 28°15' W 015°34'1121.3
2017-Nov-15 21:30N 28°18' W 015°45'1121.3
2017-Nov-15 21:00N 28°21' W 015°57'1121.2
2017-Nov-15 20:30N 28°26' W 016°07'713.5
2017-Nov-15 20:00N 28°28' W 016°15'0 0.0
2017-Nov-15 19:30N 28°28' W 016°15'0 0.0
2017-Nov-15 18:59N 28°28' W 016°15'2 3.9
2017-Nov-15 18:30N 28°28' W 016°13'1121.6
2017-Nov-15 18:00N 28°24' W 016°01'1121.3
2017-Nov-15 17:30N 28°21' W 015°50'1121.5
2017-Nov-15 17:00N 28°17' W 015°38'1121.1
2017-Nov-15 16:30N 28°13' W 015°27'5 9.1
2017-Nov-15 16:00N 28°10' W 015°24'0 0.0
2017-Nov-15 15:30N 28°10' W 015°24'0 0.0
2017-Nov-15 15:00N 28°10' W 015°24'0 0.0
2017-Nov-15 14:30N 28°10' W 015°24'0 0.0
2017-Nov-15 14:00N 28°10' W 015°24'0 0.0
2017-Nov-15 13:30N 28°10' W 015°24'0 0.0
2017-Nov-15 13:00N 28°10' W 015°24'0 0.3
2017-Nov-15 12:30N 28°09' W 015°24'0 0.4
2017-Nov-15 12:00N 28°10' W 015°24'0 0.4
2017-Nov-15 11:31N 28°09' W 015°24'0 0.4
2017-Nov-15 11:01N 28°10' W 015°24'0 0.0
2017-Nov-15 10:31N 28°10' W 015°24'0 0.8
2017-Nov-15 10:01N 28°09' W 015°24'815.3
2017-Nov-15 09:31N 28°14' W 015°31'1121.3
2017-Nov-15 09:01N 28°18' W 015°42'1121.2
2017-Nov-15 08:31N 28°22' W 015°53'1121.4
2017-Nov-15 08:01N 28°26' W 016°04'917.7
2017-Nov-15 07:29N 28°28' W 016°15'0 0.3
2017-Nov-15 06:58N 28°28' W 016°15'0 0.0
2017-Nov-15 06:30N 28°28' W 016°15'0 0.0
2017-Nov-15 06:00N 28°28' W 016°15'0 0.0
2017-Nov-15 05:30N 28°28' W 016°15'0 0.0
2017-Nov-15 05:00N 28°28' W 016°15'0 0.0
2017-Nov-15 04:29N 28°28' W 016°15'0 0.0
2017-Nov-15 03:59N 28°28' W 016°15'0 0.0
2017-Nov-15 03:30N 28°28' W 016°15'0 0.0
2017-Nov-15 03:00N 28°28' W 016°15'0 0.0
2017-Nov-15 02:29N 28°28' W 016°15'0 0.0
2017-Nov-15 01:57N 28°28' W 016°15'0 0.0
2017-Nov-15 00:35N 28°28' W 016°15'0 0.1
2017-Nov-15 00:29N 28°28' W 016°15'0 0.0
2017-Nov-14 23:52N 28°28' W 016°15'0 0.0
2017-Nov-14 23:20N 28°28' W 016°15'1 2.4
2017-Nov-14 22:59N 28°29' W 016°14'1019.8
2017-Nov-14 22:30N 28°26' W 016°04'1121.3
2017-Nov-14 22:00N 28°22' W 015°53'1121.3
2017-Nov-14 21:30N 28°18' W 015°41'1121.4
2017-Nov-14 21:00N 28°14' W 015°30'714.2
2017-Nov-14 20:30N 28°09' W 015°24'0 0.6
2017-Nov-14 20:00N 28°10' W 015°24'0 0.0
2017-Nov-14 19:30N 28°10' W 015°24'0 0.0
2017-Nov-14 19:00N 28°10' W 015°24'2 3.9
2017-Nov-14 18:31N 28°11' W 015°24'1020.9
2017-Nov-14 18:00N 28°16' W 015°35'1020.6
2017-Nov-14 17:30N 28°20' W 015°45'1020.7
2017-Nov-14 17:00N 28°23' W 015°57'1020.8
2017-Nov-14 16:30N 28°27' W 016°08'612.8
2017-Nov-14 16:01N 28°28' W 016°15'0 0.0
2017-Nov-14 15:23N 28°28' W 016°15'0 0.0
2017-Nov-14 15:00N 28°28' W 016°15'0 0.0
2017-Nov-14 14:29N 28°28' W 016°15'0 0.0
2017-Nov-14 14:00N 28°28' W 016°15'0 0.0
2017-Nov-14 13:30N 28°28' W 016°15'0 0.0
2017-Nov-14 13:00N 28°28' W 016°15'0 0.0
2017-Nov-14 12:30N 28°28' W 016°15'0 0.0
2017-Nov-14 12:00N 28°28' W 016°15'0 0.0
2017-Nov-14 10:44N 28°28' W 016°15'0 0.0
2017-Nov-14 10:19N 28°28' W 016°15'1 3.4
2017-Nov-14 09:58N 28°29' W 016°13'1021.7
2017-Nov-14 09:30N 28°25' W 016°03'1121.6
2017-Nov-14 09:00N 28°21' W 015°51'1121.4
2017-Nov-14 08:31N 28°17' W 015°40'1121.3
2017-Nov-14 08:01N 28°14' W 015°29'611.7
2017-Nov-14 07:30N 28°10' W 015°24'0 0.0
2017-Nov-14 07:00N 28°10' W 015°24'0 0.0
2017-Nov-14 06:30N 28°10' W 015°24'0 0.0
2017-Nov-14 06:00N 28°10' W 015°24'0 0.0
2017-Nov-14 05:30N 28°10' W 015°24'0 0.0
2017-Nov-14 05:00N 28°10' W 015°24'0 0.0
2017-Nov-14 04:30N 28°10' W 015°24'0 0.0
2017-Nov-14 04:00N 28°10' W 015°24'0 0.0
2017-Nov-14 03:30N 28°10' W 015°24'0 0.0
2017-Nov-14 03:00N 28°10' W 015°24'0 0.0
2017-Nov-14 02:30N 28°10' W 015°24'0 0.0
2017-Nov-14 02:00N 28°10' W 015°24'0 0.0
2017-Nov-14 01:30N 28°10' W 015°24'0 0.0
2017-Nov-14 01:00N 28°10' W 015°24'0 0.0
2017-Nov-14 00:31N 28°10' W 015°24'0 0.0
2017-Nov-14 00:01N 28°10' W 015°24'0 0.0
2017-Nov-13 23:30N 28°10' W 015°24'0 0.0
2017-Nov-13 23:00N 28°10' W 015°24'3 5.3
2017-Nov-13 22:30N 28°12' W 015°25'1121.0
2017-Nov-13 22:00N 28°16' W 015°36'  
Track history (hours):
 
Tides and Currents Weather Stations Pressure Air Temp Water Temp Dewpoint Dewpoint Depression Visibility Wind Speed Wind Dir Waves Ship Positions

Volcan De Tijarafe

Last reported at 2017-Nov-23 09:30 UTC. Time now 2017-Nov-23 09:42 UTC.
Position N 28°55' W 013°36'.

Length 154 m; draft 5.2 m.

Type: Passenger vessel. MMSI: 224692000.

Date/timePositionNaut miles runAvg speedWind from/ knotsBaromVisibWave heightAir tempDewpointWater temp
2017-Nov-23 09:30N 28°55' W 013°36'9 2.2
2017-Nov-23 05:28N 28°50' W 013°45'818.0
2017-Nov-23 05:00N 28°48' W 013°54'918.0
2017-Nov-23 04:30N 28°45' W 014°04'917.9
2017-Nov-23 04:00N 28°41' W 014°13'918.0
2017-Nov-23 03:30N 28°37' W 014°22'918.0
2017-Nov-23 03:00N 28°33' W 014°31'918.3
2017-Nov-23 02:30N 28°28' W 014°40'918.1
2017-Nov-23 02:00N 28°24' W 014°49'918.2
2017-Nov-23 01:30N 28°19' W 014°58'918.1
2017-Nov-23 01:00N 28°14' W 015°07'918.4
2017-Nov-23 00:30N 28°10' W 015°16'714.5
2017-Nov-23 00:00N 28°10' W 015°24'0 0.1
2017-Nov-22 23:30N 28°10' W 015°24'0 0.0
2017-Nov-22 23:00N 28°10' W 015°24'0 0.0
2017-Nov-22 22:30N 28°10' W 015°24'0 0.0
2017-Nov-22 22:00N 28°10' W 015°24'0 0.0
2017-Nov-22 21:30N 28°10' W 015°24'0 0.0
2017-Nov-22 21:00N 28°10' W 015°24'0 0.0
2017-Nov-22 20:30N 28°10' W 015°24'0 0.0
2017-Nov-22 20:00N 28°10' W 015°24'0 0.0
2017-Nov-22 19:30N 28°10' W 015°24'  
2017-Nov-20 00:30N 28°10' W 015°24'0 0.0
2017-Nov-20 00:00N 28°10' W 015°24'0 0.0
2017-Nov-19 23:30N 28°10' W 015°24'0 0.0
2017-Nov-19 23:00N 28°10' W 015°24'0 0.0
2017-Nov-19 22:30N 28°10' W 015°24'1 1.3
2017-Nov-19 22:01N 28°09' W 015°24'1019.2
2017-Nov-19 21:30N 28°15' W 015°32'1121.4
2017-Nov-19 21:00N 28°19' W 015°44'1121.5
2017-Nov-19 20:30N 28°23' W 015°55'1121.4
2017-Nov-19 20:00N 28°26' W 016°06'7 5.0
2017-Nov-19 18:31N 28°28' W 016°15'0 0.0
2017-Nov-19 18:14N 28°28' W 016°15'4 7.8
2017-Nov-19 17:46N 28°28' W 016°11'622.0
2017-Nov-19 17:30N 28°26' W 016°05'1121.9
2017-Nov-19 17:00N 28°22' W 015°53'1121.8
2017-Nov-19 16:30N 28°18' W 015°41'1121.8
2017-Nov-19 16:00N 28°14' W 015°30'713.9
2017-Nov-19 15:31N 28°10' W 015°24'0 0.1
2017-Nov-19 15:00N 28°10' W 015°24'0 0.0
2017-Nov-19 14:30N 28°10' W 015°24'0 0.0
2017-Nov-19 14:00N 28°10' W 015°24'0 0.0
2017-Nov-19 13:30N 28°10' W 015°24'0 0.0
2017-Nov-19 13:00N 28°10' W 015°24'0 0.0
2017-Nov-19 12:30N 28°10' W 015°24'0 0.0
2017-Nov-19 12:00N 28°10' W 015°24'0 0.0
2017-Nov-19 11:30N 28°10' W 015°24'0 0.0
2017-Nov-19 11:00N 28°10' W 015°24'0 0.0
2017-Nov-19 10:30N 28°10' W 015°24'0 0.0
2017-Nov-19 10:00N 28°10' W 015°24'0 0.0
2017-Nov-19 09:30N 28°10' W 015°24'0 0.0
2017-Nov-19 09:00N 28°10' W 015°24'0 0.0
2017-Nov-19 08:30N 28°10' W 015°24'0 0.0
2017-Nov-19 08:00N 28°10' W 015°24'0 0.0
2017-Nov-19 07:30N 28°10' W 015°24'0 0.0
2017-Nov-19 07:01N 28°10' W 015°24'0 0.0
2017-Nov-19 06:30N 28°10' W 015°24'0 0.0
2017-Nov-19 06:00N 28°10' W 015°24'0 0.0
2017-Nov-19 05:30N 28°10' W 015°24'0 0.0
2017-Nov-19 05:00N 28°10' W 015°24'0 0.0
2017-Nov-19 04:30N 28°10' W 015°24'0 0.0
2017-Nov-19 04:00N 28°10' W 015°24'0 0.0
2017-Nov-19 03:30N 28°10' W 015°24'0 0.0
2017-Nov-19 03:00N 28°10' W 015°24'0 0.0
2017-Nov-19 02:30N 28°10' W 015°24'0 0.0
2017-Nov-19 02:00N 28°10' W 015°24'0 0.0
2017-Nov-19 01:30N 28°10' W 015°24'0 0.0
2017-Nov-19 01:00N 28°10' W 015°24'0 0.0
2017-Nov-19 00:30N 28°10' W 015°24'0 0.0
2017-Nov-19 00:00N 28°10' W 015°24'0 0.0
2017-Nov-18 23:30N 28°10' W 015°24'0 0.0
2017-Nov-18 23:00N 28°10' W 015°24'0 1.0
2017-Nov-18 22:31N 28°09' W 015°24'816.5
2017-Nov-18 22:00N 28°15' W 015°31'1121.5
2017-Nov-18 21:30N 28°19' W 015°42'1121.6
2017-Nov-18 21:00N 28°22' W 015°54'1121.5
2017-Nov-18 20:30N 28°26' W 016°05'811.9
2017-Nov-18 19:48N 28°28' W 016°15'0 0.0
2017-Nov-18 19:24N 28°28' W 016°15'0 0.0
2017-Nov-18 17:57N 28°28' W 016°15'0 0.0
2017-Nov-18 16:17N 28°28' W 016°15'0 0.0
2017-Nov-18 15:56N 28°28' W 016°15'0 0.0
2017-Nov-18 15:25N 28°28' W 016°15'0 0.0
2017-Nov-18 14:58N 28°28' W 016°15'0 0.0
2017-Nov-18 14:29N 28°28' W 016°15'0 0.0
2017-Nov-18 14:00N 28°28' W 016°15'0 0.0
2017-Nov-18 13:30N 28°28' W 016°15'0 0.0
2017-Nov-18 13:00N 28°28' W 016°15'0 0.0
2017-Nov-18 12:30N 28°28' W 016°15'0 0.0
2017-Nov-18 11:56N 28°28' W 016°15'0 0.0
2017-Nov-18 11:30N 28°28' W 016°15'0 0.0
2017-Nov-18 10:56N 28°28' W 016°15'1 2.4
2017-Nov-18 10:30N 28°29' W 016°14'1021.1
2017-Nov-18 10:00N 28°25' W 016°02'1121.9
2017-Nov-18 09:30N 28°21' W 015°51'1121.7
2017-Nov-18 09:00N 28°17' W 015°39'1121.6
2017-Nov-18 08:30N 28°13' W 015°28'510.7
2017-Nov-18 08:00N 28°10' W 015°24'0 0.0
2017-Nov-18 07:30N 28°10' W 015°24'0 0.0
2017-Nov-18 07:00N 28°10' W 015°24'0 0.0
2017-Nov-18 06:30N 28°10' W 015°24'0 0.0
2017-Nov-18 06:00N 28°10' W 015°24'0 0.0
2017-Nov-18 05:30N 28°10' W 015°24'0 0.0
2017-Nov-18 05:00N 28°10' W 015°24'0 0.0
2017-Nov-18 04:30N 28°10' W 015°24'0 0.0
2017-Nov-18 04:00N 28°10' W 015°24'0 0.0
2017-Nov-18 03:30N 28°10' W 015°24'0 0.0
2017-Nov-18 03:00N 28°10' W 015°24'0 0.0
2017-Nov-18 02:30N 28°10' W 015°24'0 0.0
2017-Nov-18 02:00N 28°10' W 015°24'0 0.0
2017-Nov-18 01:30N 28°10' W 015°24'0 0.0
2017-Nov-18 01:00N 28°10' W 015°24'0 0.0
2017-Nov-18 00:30N 28°10' W 015°24'0 0.0
2017-Nov-18 00:00N 28°10' W 015°24'0 0.0
2017-Nov-17 23:30N 28°10' W 015°24'4 7.2
2017-Nov-17 23:00N 28°13' W 015°26'1121.5
2017-Nov-17 22:30N 28°17' W 015°37'1121.1
2017-Nov-17 22:00N 28°20' W 015°49'1121.3
2017-Nov-17 21:30N 28°24' W 015°60'1121.2
2017-Nov-17 21:00N 28°28' W 016°11'3 5.8
2017-Nov-17 20:29N 28°28' W 016°15'0 0.0
2017-Nov-17 19:57N 28°28' W 016°15'0 0.4
2017-Nov-17 19:30N 28°28' W 016°15'2 4.9
2017-Nov-17 19:00N 28°28' W 016°12'1121.8
2017-Nov-17 18:30N 28°24' W 016°00'1121.6
2017-Nov-17 18:00N 28°21' W 015°49'1121.5
2017-Nov-17 17:30N 28°17' W 015°37'1121.3
2017-Nov-17 17:00N 28°13' W 015°26'4 7.4
2017-Nov-17 16:30N 28°10' W 015°24'0 0.0
2017-Nov-17 16:00N 28°10' W 015°24'0 0.0
2017-Nov-17 15:30N 28°10' W 015°24'0 0.0
2017-Nov-17 15:00N 28°10' W 015°24'0 1.0
2017-Nov-17 14:31N 28°09' W 015°24'1020.3
2017-Nov-17 14:00N 28°14' W 015°14'1121.4
2017-Nov-17 13:30N 28°19' W 015°03'1121.5
2017-Nov-17 13:00N 28°23' W 014°52'1121.3
2017-Nov-17 12:30N 28°28' W 014°41'1121.2
2017-Nov-17 12:00N 28°33' W 014°30'1121.3
2017-Nov-17 11:30N 28°38' W 014°19'1021.3
2017-Nov-17 11:00N 28°43' W 014°09'1121.0
2017-Nov-17 10:30N 28°47' W 013°58'1321.6
2017-Nov-17 09:54N 28°51' W 013°43'1121.0
2017-Nov-17 09:23N 28°56' W 013°33'2 1.5
2017-Nov-17 07:55N 28°58' W 013°32'0 0.0
2017-Nov-17 06:37N 28°58' W 013°32'0 0.0
2017-Nov-17 06:30N 28°58' W 013°32'1815.3
2017-Nov-17 05:19N 28°49' W 013°49'1118.2
2017-Nov-17 04:41N 28°46' W 014°02'2318.7
2017-Nov-17 03:29N 28°36' W 014°25'918.4
2017-Nov-17 02:59N 28°31' W 014°34'918.2
2017-Nov-17 02:30N 28°28' W 014°43'918.5
2017-Nov-17 02:00N 28°24' W 014°52'918.5
2017-Nov-17 01:30N 28°19' W 015°02'918.1
2017-Nov-17 01:00N 28°15' W 015°11'918.3
2017-Nov-17 00:30N 28°11' W 015°20'4 7.5
2017-Nov-17 00:00N 28°10' W 015°24'0 0.0
2017-Nov-16 23:30N 28°10' W 015°24'0 0.0
2017-Nov-16 23:00N 28°10' W 015°24'0 0.0
2017-Nov-16 22:30N 28°10' W 015°24'0 0.0
2017-Nov-16 22:00N 28°10' W 015°24'0 0.0
2017-Nov-16 21:30N 28°10' W 015°24'0 0.0
2017-Nov-16 21:00N 28°10' W 015°24'0 0.0
2017-Nov-16 20:30N 28°10' W 015°24'0 0.0
2017-Nov-16 20:00N 28°10' W 015°24'0 0.0
2017-Nov-16 19:30N 28°10' W 015°24'0 0.0
2017-Nov-16 19:00N 28°10' W 015°24'4 8.8
2017-Nov-16 18:30N 28°08' W 015°19'1121.5
2017-Nov-16 18:00N 28°07' W 015°07'1020.9
2017-Nov-16 17:30N 28°05' W 014°56'1121.1
2017-Nov-16 17:00N 28°04' W 014°44'1121.2
2017-Nov-16 16:30N 28°02' W 014°32'915.3
2017-Nov-16 15:56N 28°03' W 014°22'0 0.0
2017-Nov-16 15:26N 28°03' W 014°22'0 0.0
2017-Nov-16 14:50N 28°03' W 014°22'0 0.0
2017-Nov-16 14:26N 28°03' W 014°22'0 0.0
2017-Nov-16 13:54N 28°03' W 014°22'0 0.0
2017-Nov-16 12:40N 28°03' W 014°22'0 0.0
2017-Nov-16 12:30N 28°03' W 014°22'0 0.0
2017-Nov-16 11:58N 28°03' W 014°22'0 0.0
2017-Nov-16 11:29N 28°03' W 014°22'0 0.0
2017-Nov-16 11:00N 28°03' W 014°22'4 7.4
2017-Nov-16 10:30N 28°02' W 014°26'1021.0
2017-Nov-16 10:00N 28°03' W 014°38'1121.5
2017-Nov-16 09:30N 28°04' W 014°50'1021.0
2017-Nov-16 09:00N 28°05' W 015°02'1020.9
2017-Nov-16 08:30N 28°07' W 015°13'1019.5
2017-Nov-16 08:00N 28°09' W 015°24'0 0.6
2017-Nov-16 07:30N 28°10' W 015°24'0 0.0
2017-Nov-16 07:00N 28°10' W 015°24'0 0.0
2017-Nov-16 06:30N 28°10' W 015°24'0 0.0
2017-Nov-16 06:00N 28°10' W 015°24'0 0.0
2017-Nov-16 05:31N 28°10' W 015°24'0 0.0
2017-Nov-16 05:00N 28°10' W 015°24'0 0.0
2017-Nov-16 04:30N 28°10' W 015°24'0 0.0
2017-Nov-16 04:01N 28°10' W 015°24'0 0.0
2017-Nov-16 03:30N 28°10' W 015°24'0 0.0
2017-Nov-16 03:00N 28°10' W 015°24'0 0.0
2017-Nov-16 02:30N 28°10' W 015°24'0 0.0
2017-Nov-16 02:00N 28°10' W 015°24'0 0.0
2017-Nov-16 01:30N 28°10' W 015°24'0 0.0
2017-Nov-16 01:00N 28°10' W 015°24'0 0.0
2017-Nov-16 00:30N 28°10' W 015°24'0 0.0
2017-Nov-16 00:00N 28°10' W 015°24'0 0.0
2017-Nov-15 23:30N 28°10' W 015°24'0 0.0
2017-Nov-15 23:00N 28°10' W 015°24'1 2.1
2017-Nov-15 22:30N 28°10' W 015°23'1020.5
2017-Nov-15 22:00N 28°15' W 015°34'1121.3
2017-Nov-15 21:30N 28°18' W 015°45'1121.3
2017-Nov-15 21:00N 28°21' W 015°57'1121.2
2017-Nov-15 20:30N 28°26' W 016°07'713.5
2017-Nov-15 20:00N 28°28' W 016°15'0 0.0
2017-Nov-15 19:30N 28°28' W 016°15'0 0.0
2017-Nov-15 18:59N 28°28' W 016°15'2 3.9
2017-Nov-15 18:30N 28°28' W 016°13'1121.6
2017-Nov-15 18:00N 28°24' W 016°01'1121.3
2017-Nov-15 17:30N 28°21' W 015°50'1121.5
2017-Nov-15 17:00N 28°17' W 015°38'1121.1
2017-Nov-15 16:30N 28°13' W 015°27'5 9.1
2017-Nov-15 16:00N 28°10' W 015°24'0 0.0
2017-Nov-15 15:30N 28°10' W 015°24'0 0.0
2017-Nov-15 15:00N 28°10' W 015°24'0 0.0
2017-Nov-15 14:30N 28°10' W 015°24'0 0.0
2017-Nov-15 14:00N 28°10' W 015°24'0 0.0
2017-Nov-15 13:30N 28°10' W 015°24'0 0.0
2017-Nov-15 13:00N 28°10' W 015°24'0 0.3
2017-Nov-15 12:30N 28°09' W 015°24'0 0.4
2017-Nov-15 12:00N 28°10' W 015°24'0 0.4
2017-Nov-15 11:31N 28°09' W 015°24'0 0.4
2017-Nov-15 11:01N 28°10' W 015°24'0 0.0
2017-Nov-15 10:31N 28°10' W 015°24'0 0.8
2017-Nov-15 10:01N 28°09' W 015°24'815.3
2017-Nov-15 09:31N 28°14' W 015°31'1121.3
2017-Nov-15 09:01N 28°18' W 015°42'1121.2
2017-Nov-15 08:31N 28°22' W 015°53'1121.4
2017-Nov-15 08:01N 28°26' W 016°04'917.7
2017-Nov-15 07:29N 28°28' W 016°15'0 0.3
2017-Nov-15 06:58N 28°28' W 016°15'0 0.0
2017-Nov-15 06:30N 28°28' W 016°15'0 0.0
2017-Nov-15 06:00N 28°28' W 016°15'0 0.0
2017-Nov-15 05:30N 28°28' W 016°15'0 0.0
2017-Nov-15 05:00N 28°28' W 016°15'0 0.0
2017-Nov-15 04:29N 28°28' W 016°15'0 0.0
2017-Nov-15 03:59N 28°28' W 016°15'0 0.0
2017-Nov-15 03:30N 28°28' W 016°15'0 0.0
2017-Nov-15 03:00N 28°28' W 016°15'0 0.0
2017-Nov-15 02:29N 28°28' W 016°15'0 0.0
2017-Nov-15 01:57N 28°28' W 016°15'0 0.0
2017-Nov-15 00:35N 28°28' W 016°15'0 0.1
2017-Nov-15 00:29N 28°28' W 016°15'0 0.0
2017-Nov-14 23:52N 28°28' W 016°15'0 0.0
2017-Nov-14 23:20N 28°28' W 016°15'1 2.4
2017-Nov-14 22:59N 28°29' W 016°14'1019.8
2017-Nov-14 22:30N 28°26' W 016°04'1121.3
2017-Nov-14 22:00N 28°22' W 015°53'1121.3
2017-Nov-14 21:30N 28°18' W 015°41'1121.4
2017-Nov-14 21:00N 28°14' W 015°30'714.2
2017-Nov-14 20:30N 28°09' W 015°24'0 0.6
2017-Nov-14 20:00N 28°10' W 015°24'0 0.0
2017-Nov-14 19:30N 28°10' W 015°24'0 0.0
2017-Nov-14 19:00N 28°10' W 015°24'2 3.9
2017-Nov-14 18:31N 28°11' W 015°24'1020.9
2017-Nov-14 18:00N 28°16' W 015°35'1020.6
2017-Nov-14 17:30N 28°20' W 015°45'1020.7
2017-Nov-14 17:00N 28°23' W 015°57'1020.8
2017-Nov-14 16:30N 28°27' W 016°08'612.8
2017-Nov-14 16:01N 28°28' W 016°15'0 0.0
2017-Nov-14 15:23N 28°28' W 016°15'0 0.0
2017-Nov-14 15:00N 28°28' W 016°15'0 0.0
2017-Nov-14 14:29N 28°28' W 016°15'0 0.0
2017-Nov-14 14:00N 28°28' W 016°15'0 0.0
2017-Nov-14 13:30N 28°28' W 016°15'0 0.0
2017-Nov-14 13:00N 28°28' W 016°15'0 0.0
2017-Nov-14 12:30N 28°28' W 016°15'0 0.0
2017-Nov-14 12:00N 28°28' W 016°15'0 0.0
2017-Nov-14 10:44N 28°28' W 016°15'0 0.0
2017-Nov-14 10:19N 28°28' W 016°15'1 3.4
2017-Nov-14 09:58N 28°29' W 016°13'1021.7
2017-Nov-14 09:30N 28°25' W 016°03'1121.6
2017-Nov-14 09:00N 28°21' W 015°51'1121.4
2017-Nov-14 08:31N 28°17' W 015°40'1121.3
2017-Nov-14 08:01N 28°14' W 015°29'611.7
2017-Nov-14 07:30N 28°10' W 015°24'0 0.0
2017-Nov-14 07:00N 28°10' W 015°24'0 0.0
2017-Nov-14 06:30N 28°10' W 015°24'0 0.0
2017-Nov-14 06:00N 28°10' W 015°24'0 0.0
2017-Nov-14 05:30N 28°10' W 015°24'0 0.0
2017-Nov-14 05:00N 28°10' W 015°24'0 0.0
2017-Nov-14 04:30N 28°10' W 015°24'0 0.0
2017-Nov-14 04:00N 28°10' W 015°24'0 0.0
2017-Nov-14 03:30N 28°10' W 015°24'0 0.0
2017-Nov-14 03:00N 28°10' W 015°24'0 0.0
2017-Nov-14 02:30N 28°10' W 015°24'0 0.0
2017-Nov-14 02:00N 28°10' W 015°24'0 0.0
2017-Nov-14 01:30N 28°10' W 015°24'0 0.0
2017-Nov-14 01:00N 28°10' W 015°24'0 0.0
2017-Nov-14 00:31N 28°10' W 015°24'0 0.0
2017-Nov-14 00:01N 28°10' W 015°24'0 0.0
2017-Nov-13 23:30N 28°10' W 015°24'0 0.0
2017-Nov-13 23:00N 28°10' W 015°24'3 5.3
2017-Nov-13 22:30N 28°12' W 015°25'1121.0
2017-Nov-13 22:00N 28°16' W 015°36'  

Dump ship's entire track history